sensor_id;sensor_type;location;lat;lon;timestamp;pressure;altitude;pressure_sealevel;temperature;humidity
10806;BME280;5455;53.224;6.000;2022-11-18T00:02:06;99566.66;;;7.02;100.00
10806;BME280;5455;53.224;6.000;2022-11-18T00:04:33;99571.72;;;7.00;100.00
10806;BME280;5455;53.224;6.000;2022-11-18T00:07:01;99568.53;;;6.98;100.00
10806;BME280;5455;53.224;6.000;2022-11-18T00:09:28;99582.63;;;6.96;100.00
10806;BME280;5455;53.224;6.000;2022-11-18T00:11:55;99586.16;;;6.97;100.00
10806;BME280;5455;53.224;6.000;2022-11-18T00:14:40;99586.09;;;6.93;100.00
10806;BME280;5455;53.224;6.000;2022-11-18T00:17:07;99595.44;;;6.92;100.00
10806;BME280;5455;53.224;6.000;2022-11-18T00:19:36;99594.66;;;6.92;100.00
10806;BME280;5455;53.224;6.000;2022-11-18T00:22:05;99593.94;;;6.95;100.00
10806;BME280;5455;53.224;6.000;2022-11-18T00:24:33;99599.00;;;6.93;100.00
10806;BME280;5455;53.224;6.000;2022-11-18T00:26:59;99602.53;;;6.93;100.00
10806;BME280;5455;53.224;6.000;2022-11-18T00:29:26;99599.41;;;6.95;100.00
10806;BME280;5455;53.224;6.000;2022-11-18T00:31:54;99605.69;;;6.95;100.00
10806;BME280;5455;53.224;6.000;2022-11-18T00:34:22;99615.56;;;7.00;100.00
10806;BME280;5455;53.224;6.000;2022-11-18T00:36:49;99609.34;;;7.03;100.00
10806;BME280;5455;53.224;6.000;2022-11-18T00:39:18;99616.03;;;7.05;100.00
10806;BME280;5455;53.224;6.000;2022-11-18T00:41:46;99617.59;;;7.06;100.00
10806;BME280;5455;53.224;6.000;2022-11-18T00:44:32;99621.59;;;7.09;100.00
10806;BME280;5455;53.224;6.000;2022-11-18T00:46:59;99607.50;;;7.10;100.00
10806;BME280;5455;53.224;6.000;2022-11-18T00:49:26;99619.34;;;7.14;100.00
10806;BME280;5455;53.224;6.000;2022-11-18T00:51:53;99619.75;;;7.16;100.00
10806;BME280;5455;53.224;6.000;2022-11-18T00:54:20;99616.63;;;7.18;100.00
10806;BME280;5455;53.224;6.000;2022-11-18T00:56:47;99620.59;;;7.20;100.00
10806;BME280;5455;53.224;6.000;2022-11-18T00:59:14;99627.72;;;7.25;100.00
10806;BME280;5455;53.224;6.000;2022-11-18T01:01:42;99623.81;;;7.26;100.00
10806;BME280;5455;53.224;6.000;2022-11-18T01:04:09;99632.84;;;7.27;100.00
10806;BME280;5455;53.224;6.000;2022-11-18T01:06:36;99634.06;;;7.29;100.00
10806;BME280;5455;53.224;6.000;2022-11-18T01:09:02;99643.50;;;7.32;100.00
10806;BME280;5455;53.224;6.000;2022-11-18T01:11:31;99645.44;;;7.31;100.00
10806;BME280;5455;53.224;6.000;2022-11-18T01:14:17;99641.56;;;7.32;100.00
10806;BME280;5455;53.224;6.000;2022-11-18T01:16:43;99653.31;;;7.33;100.00
10806;BME280;5455;53.224;6.000;2022-11-18T01:19:17;99658.41;;;7.34;100.00
10806;BME280;5455;53.224;6.000;2022-11-18T01:21:44;99659.63;;;7.37;100.00
10806;BME280;5455;53.224;6.000;2022-11-18T01:24:11;99664.31;;;7.36;100.00
10806;BME280;5455;53.224;6.000;2022-11-18T01:26:39;99668.25;;;7.35;100.00
10806;BME280;5455;53.224;6.000;2022-11-18T01:29:06;99672.19;;;7.38;100.00
10806;BME280;5455;53.224;6.000;2022-11-18T01:31:33;99672.97;;;7.38;100.00
10806;BME280;5455;53.224;6.000;2022-11-18T01:33:59;99681.63;;;7.40;100.00
10806;BME280;5455;53.224;6.000;2022-11-18T01:36:27;99676.56;;;7.42;100.00
10806;BME280;5455;53.224;6.000;2022-11-18T01:38:54;99679.31;;;7.42;100.00
10806;BME280;5455;53.224;6.000;2022-11-18T01:41:24;99676.56;;;7.42;100.00
10806;BME280;5455;53.224;6.000;2022-11-18T01:46:23;99692.19;;;7.38;100.00
10806;BME280;5455;53.224;6.000;2022-11-18T01:49:09;99697.66;;;7.38;100.00
10806;BME280;5455;53.224;6.000;2022-11-18T01:51:54;99700.81;;;7.40;100.00
10806;BME280;5455;53.224;6.000;2022-11-18T01:54:27;99700.47;;;7.42;100.00
10806;BME280;5455;53.224;6.000;2022-11-18T01:56:59;99706.38;;;7.44;100.00
10806;BME280;5455;53.224;6.000;2022-11-18T01:59:32;99701.97;;;7.39;100.00
10806;BME280;5455;53.224;6.000;2022-11-18T02:02:05;99712.22;;;7.42;100.00
10806;BME280;5455;53.224;6.000;2022-11-18T02:04:34;99714.94;;;7.42;100.00
10806;BME280;5455;53.224;6.000;2022-11-18T02:07:01;99721.22;;;7.43;100.00
10806;BME280;5455;53.224;6.000;2022-11-18T02:09:28;99724.78;;;7.43;100.00
10806;BME280;5455;53.224;6.000;2022-11-18T02:11:55;99730.25;;;7.43;100.00
10806;BME280;5455;53.224;6.000;2022-11-18T02:14:26;99729.53;;;7.46;100.00
10806;BME280;5455;53.224;6.000;2022-11-18T02:30:41;99738.84;;;7.42;100.00
10806;BME280;5455;53.224;6.000;2022-11-18T02:33:21;99740.81;;;7.41;100.00
10806;BME280;5455;53.224;6.000;2022-11-18T02:36:00;99737.63;;;7.39;100.00
10806;BME280;5455;53.224;6.000;2022-11-18T02:38:42;99735.31;;;7.41;100.00
10806;BME280;5455;53.224;6.000;2022-11-18T02:41:17;99746.72;;;7.43;100.00
10806;BME280;5455;53.224;6.000;2022-11-18T02:43:51;99749.44;;;7.43;100.00
10806;BME280;5455;53.224;6.000;2022-11-18T02:46:24;99756.88;;;7.43;100.00
10806;BME280;5455;53.224;6.000;2022-11-18T02:48:53;99763.97;;;7.44;100.00
10806;BME280;5455;53.224;6.000;2022-11-18T02:51:24;99759.19;;;7.41;100.00
10806;BME280;5455;53.224;6.000;2022-11-18T02:53:55;99771.69;;;7.38;100.00
10806;BME280;5455;53.224;6.000;2022-11-18T02:56:25;99766.22;;;7.38;100.00
10806;BME280;5455;53.224;6.000;2022-11-18T02:58:52;99761.88;;;7.37;100.00
10806;BME280;5455;53.224;6.000;2022-11-18T03:01:23;99768.50;;;7.36;100.00
10806;BME280;5455;53.224;6.000;2022-11-18T03:03:51;99777.53;;;7.37;100.00
10806;BME280;5455;53.224;6.000;2022-11-18T03:06:28;99775.59;;;7.37;100.00
10806;BME280;5455;53.224;6.000;2022-11-18T03:15:10;99791.16;;;7.33;100.00
10806;BME280;5455;53.224;6.000;2022-11-18T03:20:33;99789.22;;;7.34;100.00
10806;BME280;5455;53.224;6.000;2022-11-18T03:30:55;99803.22;;;7.29;100.00
10806;BME280;5455;53.224;6.000;2022-11-18T03:33:30;99808.34;;;7.30;100.00
10806;BME280;5455;53.224;6.000;2022-11-18T03:36:00;99816.56;;;7.30;100.00
10806;BME280;5455;53.224;6.000;2022-11-18T03:38:33;99809.50;;;7.29;100.00
10806;BME280;5455;53.224;6.000;2022-11-18T03:41:06;99819.31;;;7.30;100.00
10806;BME280;5455;53.224;6.000;2022-11-18T03:43:42;99819.69;;;7.29;100.00
10806;BME280;5455;53.224;6.000;2022-11-18T03:46:18;99822.44;;;7.29;100.00
10806;BME280;5455;53.224;6.000;2022-11-18T03:48:51;99828.72;;;7.29;100.00
10806;BME280;5455;53.224;6.000;2022-11-18T03:51:30;99818.97;;;7.32;100.00
10806;BME280;5455;53.224;6.000;2022-11-18T03:54:12;99822.00;;;7.27;100.00
10806;BME280;5455;53.224;6.000;2022-11-18T03:56:45;99830.56;;;7.25;100.00
10806;BME280;5455;53.224;6.000;2022-11-18T03:59:22;99834.84;;;7.22;100.00
10806;BME280;5455;53.224;6.000;2022-11-18T04:01:52;99836.78;;;7.22;100.00
10806;BME280;5455;53.224;6.000;2022-11-18T04:04:22;99838.66;;;7.18;100.00
10806;BME280;5455;53.224;6.000;2022-11-18T04:09:29;99834.34;;;7.17;100.00
10806;BME280;5455;53.224;6.000;2022-11-18T04:12:04;99840.53;;;7.14;100.00
10806;BME280;5455;53.224;6.000;2022-11-18T04:14:36;99841.69;;;7.13;100.00
10806;BME280;5455;53.224;6.000;2022-11-18T04:17:09;99846.31;;;7.09;100.00
10806;BME280;5455;53.224;6.000;2022-11-18T04:19:36;99850.63;;;7.10;100.00
10806;BME280;5455;53.224;6.000;2022-11-18T04:22:03;99851.84;;;7.12;100.00
10806;BME280;5455;53.224;6.000;2022-11-18T04:24:31;99852.66;;;7.13;100.00
10806;BME280;5455;53.224;6.000;2022-11-18T04:26:58;99855.38;;;7.13;100.00
10806;BME280;5455;53.224;6.000;2022-11-18T04:29:25;99860.06;;;7.12;100.00
10806;BME280;5455;53.224;6.000;2022-11-18T04:31:52;99854.16;;;7.10;100.00
10806;BME280;5455;53.224;6.000;2022-11-18T04:34:18;99862.31;;;7.07;100.00
10806;BME280;5455;53.224;6.000;2022-11-18T04:36:45;99870.91;;;7.05;100.00
10806;BME280;5455;53.224;6.000;2022-11-18T04:39:12;99873.66;;;7.05;100.00
10806;BME280;5455;53.224;6.000;2022-11-18T04:41:39;99872.03;;;7.04;100.00
10806;BME280;5455;53.224;6.000;2022-11-18T04:44:30;99878.63;;;7.00;100.00
10806;BME280;5455;53.224;6.000;2022-11-18T04:47:00;99882.50;;;6.99;100.00
10806;BME280;5455;53.224;6.000;2022-11-18T04:49:28;99895.41;;;6.98;100.00
10806;BME280;5455;53.224;6.000;2022-11-18T04:51:55;99882.84;;;6.97;100.00
10806;BME280;5455;53.224;6.000;2022-11-18T04:54:24;99889.91;;;6.98;100.00
10806;BME280;5455;53.224;6.000;2022-11-18T04:56:52;99890.28;;;6.97;100.00
10806;BME280;5455;53.224;6.000;2022-11-18T04:59:22;99899.28;;;6.97;100.00
10806;BME280;5455;53.224;6.000;2022-11-18T05:01:49;99901.69;;;6.99;100.00
10806;BME280;5455;53.224;6.000;2022-11-18T05:04:22;99897.00;;;6.99;100.00
10806;BME280;5455;53.224;6.000;2022-11-18T05:06:49;99906.28;;;6.95;100.00
10806;BME280;5455;53.224;6.000;2022-11-18T05:09:16;99908.69;;;6.96;100.00
10806;BME280;5455;53.224;6.000;2022-11-18T05:11:44;99912.56;;;6.95;100.00
10806;BME280;5455;53.224;6.000;2022-11-18T05:14:30;99914.59;;;6.98;100.00
10806;BME280;5455;53.224;6.000;2022-11-18T05:17:01;99919.19;;;6.94;100.00
10806;BME280;5455;53.224;6.000;2022-11-18T05:19:29;99919.19;;;6.94;100.00
10806;BME280;5455;53.224;6.000;2022-11-18T05:21:56;99913.69;;;6.94;100.00
10806;BME280;5455;53.224;6.000;2022-11-18T05:24:23;99914.88;;;6.93;100.00
10806;BME280;5455;53.224;6.000;2022-11-18T05:26:52;99911.69;;;6.91;100.00
10806;BME280;5455;53.224;6.000;2022-11-18T05:29:20;99921.06;;;6.90;100.00
10806;BME280;5455;53.224;6.000;2022-11-18T05:31:47;99924.16;;;6.89;100.00
10806;BME280;5455;53.224;6.000;2022-11-18T05:34:15;99934.31;;;6.88;100.00
10806;BME280;5455;53.224;6.000;2022-11-18T05:36:42;99931.94;;;6.87;100.00
10806;BME280;5455;53.224;6.000;2022-11-18T05:39:09;99940.50;;;6.85;100.00
10806;BME280;5455;53.224;6.000;2022-11-18T05:41:35;99937.69;;;6.82;100.00
10806;BME280;5455;53.224;6.000;2022-11-18T05:44:21;99940.06;;;6.83;100.00
10806;BME280;5455;53.224;6.000;2022-11-18T05:46:48;99935.81;;;6.86;100.00
10806;BME280;5455;53.224;6.000;2022-11-18T05:49:15;99948.72;;;6.85;100.00
10806;BME280;5455;53.224;6.000;2022-11-18T05:51:42;99944.03;;;6.86;100.00
10806;BME280;5455;53.224;6.000;2022-11-18T05:54:10;99946.78;;;6.86;100.00
10806;BME280;5455;53.224;6.000;2022-11-18T05:56:42;99956.16;;;6.85;100.00
10806;BME280;5455;53.224;6.000;2022-11-18T05:59:13;99963.22;;;6.86;100.00
10806;BME280;5455;53.224;6.000;2022-11-18T06:01:59;99969.50;;;6.86;100.00
10806;BME280;5455;53.224;6.000;2022-11-18T06:07:03;99971.44;;;6.86;100.00
10806;BME280;5455;53.224;6.000;2022-11-18T06:09:35;99979.22;;;6.84;100.00
10806;BME280;5455;53.224;6.000;2022-11-18T06:12:06;99971.72;;;6.81;100.00
10806;BME280;5455;53.224;6.000;2022-11-18T06:14:39;99978.34;;;6.80;100.00
10806;BME280;5455;53.224;6.000;2022-11-18T06:17:12;99978.34;;;6.80;100.00
10806;BME280;5455;53.224;6.000;2022-11-18T06:19:41;99984.63;;;6.80;100.00
10806;BME280;5455;53.224;6.000;2022-11-18T06:22:08;99987.00;;;6.82;100.00
10806;BME280;5455;53.224;6.000;2022-11-18T06:24:35;99991.31;;;6.83;100.00
10806;BME280;5455;53.224;6.000;2022-11-18T06:27:03;99991.59;;;6.78;100.00
10806;BME280;5455;53.224;6.000;2022-11-18T06:29:30;100000.72;;;6.82;100.00
10806;BME280;5455;53.224;6.000;2022-11-18T06:31:57;100008.47;;;6.80;100.00
10806;BME280;5455;53.224;6.000;2022-11-18T06:34:24;100011.66;;;6.82;100.00
10806;BME280;5455;53.224;6.000;2022-11-18T06:36:51;100013.63;;;6.81;100.00
10806;BME280;5455;53.224;6.000;2022-11-18T06:39:18;100017.50;;;6.80;100.00
10806;BME280;5455;53.224;6.000;2022-11-18T06:41:45;100020.94;;;6.77;100.00
10806;BME280;5455;53.224;6.000;2022-11-18T06:44:13;100019.44;;;6.80;100.00
10806;BME280;5455;53.224;6.000;2022-11-18T06:46:40;100026.06;;;6.79;100.00
10806;BME280;5455;53.224;6.000;2022-11-18T06:49:23;100025.63;;;6.77;100.00
10806;BME280;5455;53.224;6.000;2022-11-18T06:51:50;100042.06;;;6.77;100.00
10806;BME280;5455;53.224;6.000;2022-11-18T06:54:18;100039.78;;;6.79;100.00
10806;BME280;5455;53.224;6.000;2022-11-18T06:56:45;100036.22;;;6.78;100.00
10806;BME280;5455;53.224;6.000;2022-11-18T06:59:12;100046.38;;;6.78;100.00
10806;BME280;5455;53.224;6.000;2022-11-18T07:01:39;100051.44;;;6.76;100.00
10806;BME280;5455;53.224;6.000;2022-11-18T07:04:08;100058.94;;;6.79;100.00
10806;BME280;5455;53.224;6.000;2022-11-18T07:06:35;100057.25;;;6.74;100.00
10806;BME280;5455;53.224;6.000;2022-11-18T07:09:04;100060.44;;;6.76;100.00
10806;BME280;5455;53.224;6.000;2022-11-18T07:11:32;100068.66;;;6.76;100.00
10806;BME280;5455;53.224;6.000;2022-11-18T07:13:59;100074.06;;;6.73;100.00
10806;BME280;5455;53.224;6.000;2022-11-18T07:16:27;100082.28;;;6.73;100.00
10806;BME280;5455;53.224;6.000;2022-11-18T07:18:55;100082.19;;;6.69;100.00
10806;BME280;5455;53.224;6.000;2022-11-18T07:21:26;100099.75;;;6.68;100.00
10806;BME280;5455;53.224;6.000;2022-11-18T07:23:55;100104.78;;;6.66;100.00
10806;BME280;5455;53.224;6.000;2022-11-18T07:26:22;100101.69;;;6.68;100.00
10806;BME280;5455;53.224;6.000;2022-11-18T07:28:49;100108.06;;;6.72;100.00
10806;BME280;5455;53.224;6.000;2022-11-18T07:31:18;100098.72;;;6.73;100.00
10806;BME280;5455;53.224;6.000;2022-11-18T07:33:47;100111.25;;;6.74;100.00
10806;BME280;5455;53.224;6.000;2022-11-18T07:36:20;100114.34;;;6.72;100.00
10806;BME280;5455;53.224;6.000;2022-11-18T07:38:47;100120.34;;;6.78;100.00
10806;BME280;5455;53.224;6.000;2022-11-18T07:41:17;100117.19;;;6.76;100.00
10806;BME280;5455;53.224;6.000;2022-11-18T07:43:45;100130.41;;;6.74;100.00
10806;BME280;5455;53.224;6.000;2022-11-18T07:48:50;100118.59;;;6.70;100.00
10806;BME280;5455;53.224;6.000;2022-11-18T07:51:21;100126.09;;;6.73;100.00
10806;BME280;5455;53.224;6.000;2022-11-18T07:53:48;100125.41;;;6.76;100.00
10806;BME280;5455;53.224;6.000;2022-11-18T07:56:15;100124.22;;;6.77;100.00
10806;BME280;5455;53.224;6.000;2022-11-18T07:58:43;100133.63;;;6.76;100.00
10806;BME280;5455;53.224;6.000;2022-11-18T08:01:18;100133.69;;;6.79;100.00
10806;BME280;5455;53.224;6.000;2022-11-18T08:03:47;100130.50;;;6.77;100.00
10806;BME280;5455;53.224;6.000;2022-11-18T08:06:15;100139.53;;;6.78;100.00
10806;BME280;5455;53.224;6.000;2022-11-18T08:08:43;100148.00;;;6.73;100.00
10806;BME280;5455;53.224;6.000;2022-11-18T08:11:13;100158.50;;;6.71;100.00
10806;BME280;5455;53.224;6.000;2022-11-18T08:13:47;100164.34;;;6.69;100.00
10806;BME280;5455;53.224;6.000;2022-11-18T08:16:16;100169.72;;;6.65;100.00
10806;BME280;5455;53.224;6.000;2022-11-18T08:18:44;100168.13;;;6.64;100.00
10806;BME280;5455;53.224;6.000;2022-11-18T08:21:13;100174.75;;;6.63;100.00
10806;BME280;5455;53.224;6.000;2022-11-18T08:23:42;100178.19;;;6.60;100.00
10806;BME280;5455;53.224;6.000;2022-11-18T08:26:11;100176.50;;;6.56;100.00
10806;BME280;5455;53.224;6.000;2022-11-18T08:28:43;100187.19;;;6.61;100.00
10806;BME280;5455;53.224;6.000;2022-11-18T08:31:11;100185.25;;;6.61;100.00
10806;BME280;5455;53.224;6.000;2022-11-18T08:33:38;100180.13;;;6.60;100.00
10806;BME280;5455;53.224;6.000;2022-11-18T08:36:12;100186.84;;;6.62;100.00
10806;BME280;5455;53.224;6.000;2022-11-18T08:38:40;100194.63;;;6.60;100.00
10806;BME280;5455;53.224;6.000;2022-11-18T08:41:12;100195.31;;;6.57;100.00
10806;BME280;5455;53.224;6.000;2022-11-18T08:43:40;100195.91;;;6.51;100.00
10806;BME280;5455;53.224;6.000;2022-11-18T08:46:07;100197.06;;;6.50;100.00
10806;BME280;5455;53.224;6.000;2022-11-18T08:48:35;100201.72;;;6.49;100.00
10806;BME280;5455;53.224;6.000;2022-11-18T08:51:03;100196.25;;;6.49;100.00
10806;BME280;5455;53.224;6.000;2022-11-18T08:53:31;100195.00;;;6.47;100.00
10806;BME280;5455;53.224;6.000;2022-11-18T08:55:59;100204.81;;;6.48;100.00
10806;BME280;5455;53.224;6.000;2022-11-18T08:58:27;100204.25;;;6.54;100.00
10806;BME280;5455;53.224;6.000;2022-11-18T09:00:54;100209.78;;;6.58;100.00
10806;BME280;5455;53.224;6.000;2022-11-18T09:03:21;100211.41;;;6.59;100.00
10806;BME280;5455;53.224;6.000;2022-11-18T09:05:49;100214.94;;;6.59;100.00
10806;BME280;5455;53.224;6.000;2022-11-18T09:08:15;100218.91;;;6.62;100.00
10806;BME280;5455;53.224;6.000;2022-11-18T09:10:42;100218.47;;;6.60;100.00
10806;BME280;5455;53.224;6.000;2022-11-18T09:13:09;100220.84;;;6.61;100.00
10806;BME280;5455;53.224;6.000;2022-11-18T09:16:00;100223.59;;;6.61;100.00
10806;BME280;5455;53.224;6.000;2022-11-18T09:18:27;100226.81;;;6.63;100.00
10806;BME280;5455;53.224;6.000;2022-11-18T09:20:55;100237.13;;;6.70;100.00
10806;BME280;5455;53.224;6.000;2022-11-18T09:23:23;100235.75;;;6.76;100.00
10806;BME280;5455;53.224;6.000;2022-11-18T09:26:05;100242.94;;;6.81;100.00
10806;BME280;5455;53.224;6.000;2022-11-18T09:28:33;100244.28;;;6.87;100.00
10806;BME280;5455;53.224;6.000;2022-11-18T09:31:19;100246.59;;;6.85;100.00
10806;BME280;5455;53.224;6.000;2022-11-18T09:33:46;100258.09;;;6.90;100.00
10806;BME280;5455;53.224;6.000;2022-11-18T09:36:17;100257.72;;;6.92;100.00
10806;BME280;5455;53.224;6.000;2022-11-18T09:38:45;100264.22;;;6.99;100.00
10806;BME280;5455;53.224;6.000;2022-11-18T09:49:43;100283.56;;;6.91;100.00
10806;BME280;5455;53.224;6.000;2022-11-18T09:54:38;100285.13;;;6.92;100.00
10806;BME280;5455;53.224;6.000;2022-11-18T09:57:38;100287.88;;;6.92;100.00
10806;BME280;5455;53.224;6.000;2022-11-18T10:00:17;100285.03;;;6.88;100.00
10806;BME280;5455;53.224;6.000;2022-11-18T10:03:07;100291.13;;;6.82;100.00
10806;BME280;5455;53.224;6.000;2022-11-18T10:08:20;100299.09;;;6.87;100.00
10806;BME280;5455;53.224;6.000;2022-11-18T10:10:59;100305.25;;;6.84;100.00
10806;BME280;5455;53.224;6.000;2022-11-18T10:17:03;100314.84;;;6.90;100.00
10806;BME280;5455;53.224;6.000;2022-11-18T10:20:07;100320.75;;;6.92;100.00
10806;BME280;5455;53.224;6.000;2022-11-18T10:22:43;100317.75;;;7.09;100.00
10806;BME280;5455;53.224;6.000;2022-11-18T10:25:14;100315.44;;;7.11;100.00
10806;BME280;5455;53.224;6.000;2022-11-18T10:27:44;100327.69;;;7.01;100.00
10806;BME280;5455;53.224;6.000;2022-11-18T10:30:14;100335.13;;;7.01;100.00
10806;BME280;5455;53.224;6.000;2022-11-18T10:35:34;100339.94;;;6.92;100.00
10806;BME280;5455;53.224;6.000;2022-11-18T10:38:26;100331.16;;;6.86;100.00
10806;BME280;5455;53.224;6.000;2022-11-18T10:41:00;100338.34;;;6.91;100.00
10806;BME280;5455;53.224;6.000;2022-11-18T10:43:48;100337.78;;;6.85;100.00
10806;BME280;5455;53.224;6.000;2022-11-18T10:46:17;100345.31;;;6.88;100.00
10806;BME280;5455;53.224;6.000;2022-11-18T10:48:44;100340.44;;;6.82;100.00
10806;BME280;5455;53.224;6.000;2022-11-18T10:51:22;100354.94;;;6.70;100.00
10806;BME280;5455;53.224;6.000;2022-11-18T10:53:50;100346.72;;;6.70;100.00
10806;BME280;5455;53.224;6.000;2022-11-18T10:56:16;100357.34;;;6.72;100.00
10806;BME280;5455;53.224;6.000;2022-11-18T10:58:47;100360.31;;;6.67;100.00
10806;BME280;5455;53.224;6.000;2022-11-18T11:04:14;100367.38;;;6.68;100.00
10806;BME280;5455;53.224;6.000;2022-11-18T11:06:46;100365.69;;;6.75;100.00
10806;BME280;5455;53.224;6.000;2022-11-18T11:11:54;100371.16;;;6.75;100.00
10806;BME280;5455;53.224;6.000;2022-11-18T11:14:35;100379.38;;;6.75;100.00
10806;BME280;5455;53.224;6.000;2022-11-18T11:22:22;100377.66;;;6.71;100.00
10806;BME280;5455;53.224;6.000;2022-11-18T11:24:49;100380.94;;;6.76;100.00
10806;BME280;5455;53.224;6.000;2022-11-18T11:30:26;100383.63;;;6.60;100.00
10806;BME280;5455;53.224;6.000;2022-11-18T11:33:10;100378.81;;;6.57;100.00
10806;BME280;5455;53.224;6.000;2022-11-18T11:35:51;100385.44;;;6.56;100.00
10806;BME280;5455;53.224;6.000;2022-11-18T11:38:49;100392.41;;;6.54;100.00
10806;BME280;5455;53.224;6.000;2022-11-18T11:41:36;100401.63;;;6.61;100.00
10806;BME280;5455;53.224;6.000;2022-11-18T11:44:23;100398.19;;;6.52;100.00
10806;BME280;5455;53.224;6.000;2022-11-18T11:50:05;100411.00;;;6.48;100.00
10806;BME280;5455;53.224;6.000;2022-11-18T12:00:59;100412.81;;;6.56;100.00
10806;BME280;5455;53.224;6.000;2022-11-18T12:03:45;100416.13;;;6.50;100.00
10806;BME280;5455;53.224;6.000;2022-11-18T12:06:18;100425.81;;;6.35;100.00
10806;BME280;5455;53.224;6.000;2022-11-18T12:11:36;100425.13;;;6.38;100.00
10806;BME280;5455;53.224;6.000;2022-11-18T12:17:03;100419.78;;;6.30;100.00
10806;BME280;5455;53.224;6.000;2022-11-18T12:19:38;100429.13;;;6.29;100.00
10806;BME280;5455;53.224;6.000;2022-11-18T12:22:05;100434.47;;;6.25;100.00
10806;BME280;5455;53.224;6.000;2022-11-18T12:24:34;100426.94;;;6.22;100.00
10806;BME280;5455;53.224;6.000;2022-11-18T12:32:04;100435.28;;;6.26;100.00
10806;BME280;5455;53.224;6.000;2022-11-18T12:34:42;100440.06;;;6.41;100.00
10806;BME280;5455;53.224;6.000;2022-11-18T12:39:57;100441.91;;;6.25;100.00
10806;BME280;5455;53.224;6.000;2022-11-18T12:42:51;100440.53;;;6.19;100.00
10806;BME280;5455;53.224;6.000;2022-11-18T12:50:55;100449.97;;;6.09;100.00
10806;BME280;5455;53.224;6.000;2022-11-18T12:53:44;100456.22;;;5.97;100.00
10806;BME280;5455;53.224;6.000;2022-11-18T12:56:35;100451.22;;;5.79;100.00
10806;BME280;5455;53.224;6.000;2022-11-18T12:59:02;100453.28;;;5.82;100.00
10806;BME280;5455;53.224;6.000;2022-11-18T13:01:32;100458.16;;;5.76;100.00
10806;BME280;5455;53.224;6.000;2022-11-18T13:04:13;100460.03;;;5.64;100.00
10806;BME280;5455;53.224;6.000;2022-11-18T13:06:41;100450.44;;;5.57;100.00
10806;BME280;5455;53.224;6.000;2022-11-18T13:09:22;100459.09;;;5.60;100.00
10806;BME280;5455;53.224;6.000;2022-11-18T13:17:32;100467.63;;;5.79;100.00
10806;BME280;5455;53.224;6.000;2022-11-18T13:20:28;100473.03;;;5.87;100.00
10806;BME280;5455;53.224;6.000;2022-11-18T13:26:10;100484.81;;;6.00;100.00
10806;BME280;5455;53.224;6.000;2022-11-18T13:34:02;100493.78;;;5.68;100.00
10806;BME280;5455;53.224;6.000;2022-11-18T13:36:30;100499.13;;;5.64;100.00
10806;BME280;5455;53.224;6.000;2022-11-18T13:39:05;100501.72;;;5.61;100.00
10806;BME280;5455;53.224;6.000;2022-11-18T13:41:33;100507.41;;;5.55;100.00
10806;BME280;5455;53.224;6.000;2022-11-18T13:44:17;100512.06;;;5.55;100.00
10806;BME280;5455;53.224;6.000;2022-11-18T13:46:48;100512.75;;;5.52;100.00
10806;BME280;5455;53.224;6.000;2022-11-18T13:49:23;100521.75;;;5.52;100.00
10806;BME280;5455;53.224;6.000;2022-11-18T13:51:54;100523.81;;;5.55;100.00
10806;BME280;5455;53.224;6.000;2022-11-18T13:54:24;100523.31;;;5.53;100.00
10806;BME280;5455;53.224;6.000;2022-11-18T13:56:52;100518.34;;;5.55;100.00
10806;BME280;5455;53.224;6.000;2022-11-18T13:59:22;100524.47;;;5.52;100.00
10806;BME280;5455;53.224;6.000;2022-11-18T14:01:54;100526.25;;;5.48;100.00
10806;BME280;5455;53.224;6.000;2022-11-18T14:04:24;100526.94;;;5.45;100.00
10806;BME280;5455;53.224;6.000;2022-11-18T14:06:52;100533.66;;;5.48;100.00
10806;BME280;5455;53.224;6.000;2022-11-18T14:09:55;100531.38;;;5.50;100.00
10806;BME280;5455;53.224;6.000;2022-11-18T14:12:26;100537.59;;;5.59;100.00
10806;BME280;5455;53.224;6.000;2022-11-18T14:15:12;100536.59;;;5.64;100.00
10806;BME280;5455;53.224;6.000;2022-11-18T14:17:49;100540.59;;;5.66;100.00
10806;BME280;5455;53.224;6.000;2022-11-18T14:20:17;100549.41;;;5.72;100.00
10806;BME280;5455;53.224;6.000;2022-11-18T14:22:45;100546.88;;;5.67;100.00
10806;BME280;5455;53.224;6.000;2022-11-18T14:25:27;100561.00;;;5.48;100.00
10806;BME280;5455;53.224;6.000;2022-11-18T14:27:57;100564.41;;;5.45;100.00
10806;BME280;5455;53.224;6.000;2022-11-18T14:30:39;100556.06;;;5.41;100.00
10806;BME280;5455;53.224;6.000;2022-11-18T14:33:11;100562.59;;;5.28;100.00
10806;BME280;5455;53.224;6.000;2022-11-18T14:35:41;100558.44;;;5.22;100.00
10806;BME280;5455;53.224;6.000;2022-11-18T14:38:14;100566.69;;;5.14;100.00
10806;BME280;5455;53.224;6.000;2022-11-18T14:41:03;100570.41;;;5.09;100.00
10806;BME280;5455;53.224;6.000;2022-11-18T14:43:31;100561.25;;;5.05;100.00
10806;BME280;5455;53.224;6.000;2022-11-18T14:46:03;100568.38;;;4.97;100.00
10806;BME280;5455;53.224;6.000;2022-11-18T14:48:31;100573.69;;;4.94;100.00
10806;BME280;5455;53.224;6.000;2022-11-18T14:50:59;100580.75;;;4.95;100.00
10806;BME280;5455;53.224;6.000;2022-11-18T14:53:26;100584.13;;;4.92;100.00
10806;BME280;5455;53.224;6.000;2022-11-18T14:55:55;100584.00;;;4.88;100.00
10806;BME280;5455;53.224;6.000;2022-11-18T14:58:22;100581.44;;;4.83;100.00
10806;BME280;5455;53.224;6.000;2022-11-18T15:00:50;100579.34;;;4.89;100.00
10806;BME280;5455;53.224;6.000;2022-11-18T15:03:17;100586.75;;;4.80;100.00
10806;BME280;5455;53.224;6.000;2022-11-18T15:05:44;100585.59;;;4.81;100.00
10806;BME280;5455;53.224;6.000;2022-11-18T15:08:11;100584.28;;;4.87;100.00
10806;BME280;5455;53.224;6.000;2022-11-18T15:10:39;100580.53;;;4.71;100.00
10806;BME280;5455;53.224;6.000;2022-11-18T15:13:06;100583.28;;;4.62;100.00
10806;BME280;5455;53.224;6.000;2022-11-18T15:15:33;100587.97;;;4.53;100.00
10806;BME280;5455;53.224;6.000;2022-11-18T15:18:00;100587.47;;;4.51;100.00
10806;BME280;5455;53.224;6.000;2022-11-18T15:20:27;100590.38;;;4.46;100.00
10806;BME280;5455;53.224;6.000;2022-11-18T15:22:54;100593.44;;;4.44;100.00
10806;BME280;5455;53.224;6.000;2022-11-18T15:25:21;100592.13;;;4.42;100.00
10806;BME280;5455;53.224;6.000;2022-11-18T15:27:48;100591.84;;;4.43;100.00